Time;durP1;ratioP1;P1;durP2;ratioP2;P2;SDS_P1;SDS_P2;PMS_P1;PMS_P2;Temp;Humidity;BMP_temperature;BMP_pressure;BME280_temperature;BME280_humidity;BME280_pressure;Samples;Min_cycle;Max_cycle;Signal;HPM_P1;HPM_P2
2022/03/18 00:00:56;;;;;;;;;;;9.10;91.30;;;;;;5065543;28;20019;-73
2022/03/18 00:03:22;;;;;;;;;;;9.10;91.50;;;;;;5064718;28;19913;-72
2022/03/18 00:05:48;;;;;;;;;;;9.10;91.60;;;;;;5064792;28;19908;-72
2022/03/18 00:08:14;;;;;;;;;;;9.10;91.60;;;;;;5065712;28;19916;-72
2022/03/18 00:10:40;;;;;;;;;;;9.00;91.70;;;;;;5064326;28;19908;-72
2022/03/18 00:13:06;;;;;;;;;;;9.10;91.70;;;;;;5064352;28;19980;-73
2022/03/18 00:15:31;;;;;;;;;;;9.00;91.80;;;;;;5065620;28;19909;-73
2022/03/18 00:17:57;;;;;;;;;;;9.10;91.80;;;;;;5047524;28;19909;-73
2022/03/18 00:20:23;;;;;;;;;;;9.00;92.00;;;;;;5064991;28;19979;-73
2022/03/18 00:22:49;;;;;;;;;;;9.00;91.80;;;;;;5063853;28;19909;-73
2022/03/18 00:25:16;;;;;;;;;;;8.90;91.90;;;;;;5064055;28;19912;-72
2022/03/18 00:27:42;;;;;;;;;;;9.00;91.80;;;;;;5063915;28;19909;-72
2022/03/18 00:30:09;;;;;;;;;;;8.90;91.70;;;;;;5065202;28;19976;-72
2022/03/18 00:32:39;;;;;;;;;;;8.90;91.80;;;;;;5064690;28;19943;-73
2022/03/18 00:35:07;;;;;;;;;;;8.80;91.90;;;;;;5047349;28;19919;-73
2022/03/18 00:37:34;;;;;;;;;;;8.80;91.90;;;;;;5064870;28;19912;-73
2022/03/18 00:40:00;;;;;;;;;;;8.80;91.90;;;;;;5063822;28;19983;-73
2022/03/18 00:42:26;;;;;;;;;;;8.70;92.00;;;;;;5080215;28;20200;-73
2022/03/18 00:44:52;;;;;;;;;;;8.70;92.00;;;;;;5080465;28;19916;-73
2022/03/18 00:52:47;;;;;;;;;;;8.50;92.20;;;;;;5063188;28;19980;-75
2022/03/18 00:55:13;;;;;;;;;;;8.50;92.40;;;;;;5063509;28;20207;-73
2022/03/18 00:57:39;;;;;;;;;;;8.50;92.20;;;;;;5064598;28;19909;-73
2022/03/18 01:00:05;;;;;;;;;;;8.50;92.30;;;;;;5063332;28;19912;-74
2022/03/18 01:02:31;;;;;;;;;;;8.50;92.50;;;;;;5063386;28;19909;-73
2022/03/18 01:04:57;;;;;;;;;;;8.50;92.50;;;;;;5062706;28;19952;-74
2022/03/18 01:07:22;;;;;;;;;;;8.40;92.60;;;;;;5046745;28;20072;-74
2022/03/18 01:09:48;;;;;;;;;;;8.40;92.70;;;;;;5046782;28;19916;-73
2022/03/18 01:12:14;;;;;;;;;;;8.30;92.80;;;;;;5062971;28;19908;-73
2022/03/18 01:14:39;;;;;;;;;;;8.30;92.90;;;;;;5046638;28;19908;-73
2022/03/18 01:17:05;;;;;;;;;;;8.30;93.00;;;;;;5063074;28;19931;-73
2022/03/18 01:19:31;;;;;;;;;;;8.30;93.00;;;;;;5079564;28;19913;-73
2022/03/18 01:21:57;;;;;;;;;;;8.30;93.00;;;;;;5046101;28;20208;-73
2022/03/18 01:24:22;;;;;;;;;;;8.30;93.00;;;;;;5046352;28;19931;-73
2022/03/18 01:26:48;;;;;;;;;;;8.30;93.00;;;;;;5062789;28;19909;-73
2022/03/18 01:29:14;;;;;;;;;;;8.20;93.10;;;;;;5063066;28;19908;-73
2022/03/18 01:31:39;;;;;;;;;;;8.20;93.20;;;;;;5046063;28;20219;-73
2022/03/18 01:34:05;;;;;;;;;;;8.20;93.30;;;;;;5064061;28;19915;-73
2022/03/18 01:36:31;;;;;;;;;;;8.20;93.30;;;;;;5079123;28;20215;-73
2022/03/18 01:38:56;;;;;;;;;;;8.20;93.30;;;;;;5064276;28;19955;-73
2022/03/18 01:41:22;;;;;;;;;;;8.20;93.30;;;;;;5062690;28;19958;-73
2022/03/18 01:43:48;;;;;;;;;;;8.20;93.50;;;;;;5063005;28;19976;-73
2022/03/18 01:46:14;;;;;;;;;;;8.10;93.50;;;;;;5079409;28;20223;-73
2022/03/18 01:48:40;;;;;;;;;;;8.10;93.70;;;;;;5063832;28;19947;-73
2022/03/18 01:51:07;;;;;;;;;;;8.00;93.70;;;;;;5045408;28;19909;-73
2022/03/18 01:53:34;;;;;;;;;;;8.00;93.80;;;;;;5062601;28;19916;-73
2022/03/18 01:55:59;;;;;;;;;;;8.00;93.80;;;;;;5045666;28;20162;-73
2022/03/18 01:58:25;;;;;;;;;;;8.00;94.00;;;;;;5062525;28;19915;-72
2022/03/18 02:00:51;;;;;;;;;;;8.00;94.00;;;;;;5063237;28;19940;-74
2022/03/18 02:03:17;;;;;;;;;;;8.00;94.00;;;;;;5063476;28;19909;-73
2022/03/18 02:05:43;;;;;;;;;;;8.00;94.00;;;;;;5060965;28;20051;-74
2022/03/18 02:08:09;;;;;;;;;;;8.00;94.00;;;;;;5062408;28;19913;-74
2022/03/18 02:10:35;;;;;;;;;;;8.00;94.00;;;;;;5069542;28;19924;-75
2022/03/18 02:13:01;;;;;;;;;;;8.00;94.00;;;;;;5082414;28;19908;-74
2022/03/18 02:15:27;;;;;;;;;;;8.00;94.00;;;;;;5082487;28;20196;-74
2022/03/18 02:17:52;;;;;;;;;;;8.00;93.90;;;;;;5065460;28;19909;-74
2022/03/18 02:20:18;;;;;;;;;;;8.10;93.80;;;;;;5081885;28;20044;-74
2022/03/18 02:22:44;;;;;;;;;;;8.00;93.80;;;;;;5065243;28;19909;-74
2022/03/18 02:25:12;;;;;;;;;;;8.10;93.80;;;;;;5082085;28;19977;-74
2022/03/18 02:27:38;;;;;;;;;;;8.10;93.70;;;;;;5083136;28;19955;-74
2022/03/18 02:30:05;;;;;;;;;;;8.10;93.50;;;;;;5065555;28;19966;-75
2022/03/18 02:32:31;;;;;;;;;;;8.10;93.60;;;;;;5081854;28;20218;-75
2022/03/18 02:34:57;;;;;;;;;;;8.10;93.60;;;;;;5076907;28;19909;-74
2022/03/18 02:37:23;;;;;;;;;;;8.10;93.60;;;;;;5045386;28;19917;-74
2022/03/18 02:39:48;;;;;;;;;;;8.00;93.70;;;;;;5061914;28;19979;-72
2022/03/18 02:42:14;;;;;;;;;;;8.00;93.80;;;;;;5044500;28;19924;-73
2022/03/18 02:44:40;;;;;;;;;;;8.10;93.70;;;;;;5062869;28;19936;-74
2022/03/18 02:47:06;;;;;;;;;;;8.10;93.70;;;;;;5061880;28;19909;-74
2022/03/18 02:49:32;;;;;;;;;;;8.10;93.60;;;;;;5062698;28;20093;-73
2022/03/18 02:51:58;;;;;;;;;;;8.10;93.60;;;;;;5062729;28;20272;-73
2022/03/18 02:54:24;;;;;;;;;;;8.10;93.60;;;;;;5062766;28;19921;-74
2022/03/18 02:56:49;;;;;;;;;;;8.10;93.60;;;;;;5061614;28;19909;-73
2022/03/18 02:59:15;;;;;;;;;;;8.10;93.70;;;;;;5061703;28;20146;-74
2022/03/18 03:01:41;;;;;;;;;;;8.10;93.60;;;;;;5062516;28;19920;-73
2022/03/18 03:04:06;;;;;;;;;;;8.10;93.50;;;;;;5061637;28;20222;-73
2022/03/18 03:09:16;;;;;;;;;;;7.90;93.50;;;;;;5061679;28;19916;-73
2022/03/18 03:11:44;;;;;;;;;;;7.90;93.50;;;;;;5062404;28;19908;-73
2022/03/18 03:14:09;;;;;;;;;;;7.80;93.60;;;;;;5061625;28;19913;-73
2022/03/18 03:16:35;;;;;;;;;;;7.80;93.60;;;;;;5064943;28;19915;-73
2022/03/18 03:19:02;;;;;;;;;;;7.80;93.50;;;;;;5066558;28;19909;-73
2022/03/18 03:21:27;;;;;;;;;;;7.80;93.60;;;;;;5064760;28;20024;-73
2022/03/18 03:23:53;;;;;;;;;;;7.80;93.90;;;;;;5066497;28;20112;-72
2022/03/18 03:26:19;;;;;;;;;;;7.70;93.50;;;;;;5066377;28;19909;-72
2022/03/18 03:28:45;;;;;;;;;;;7.70;93.50;;;;;;5065410;28;19932;-73
2022/03/18 03:31:11;;;;;;;;;;;7.70;93.60;;;;;;5066054;28;19947;-72
2022/03/18 03:33:37;;;;;;;;;;;7.70;93.70;;;;;;5081783;28;19915;-72
2022/03/18 03:36:04;;;;;;;;;;;7.60;93.70;;;;;;5065818;28;19913;-73
2022/03/18 03:38:29;;;;;;;;;;;7.70;93.50;;;;;;5065332;28;19909;-74
2022/03/18 03:40:55;;;;;;;;;;;7.60;93.60;;;;;;5066008;28;20186;-74
2022/03/18 03:43:21;;;;;;;;;;;7.70;93.50;;;;;;5065211;28;19971;-73
2022/03/18 03:45:47;;;;;;;;;;;7.70;93.40;;;;;;5066288;28;19908;-73
2022/03/18 03:48:12;;;;;;;;;;;7.70;93.40;;;;;;5081587;28;19909;-73
2022/03/18 03:50:40;;;;;;;;;;;7.70;93.40;;;;;;5081096;28;20208;-73
2022/03/18 03:53:07;;;;;;;;;;;7.70;93.50;;;;;;5064873;28;20265;-73
2022/03/18 03:55:34;;;;;;;;;;;7.70;93.50;;;;;;5064887;28;20146;-73
2022/03/18 03:57:59;;;;;;;;;;;7.70;93.40;;;;;;5064834;28;19909;-73
2022/03/18 04:00:25;;;;;;;;;;;7.70;93.40;;;;;;5081484;28;20004;-74
2022/03/18 04:02:51;;;;;;;;;;;7.60;93.50;;;;;;5065552;28;19912;-73
2022/03/18 04:05:17;;;;;;;;;;;7.70;93.60;;;;;;5064736;28;20119;-72
2022/03/18 04:07:44;;;;;;;;;;;7.70;93.50;;;;;;5047898;28;19909;-73
2022/03/18 04:10:11;;;;;;;;;;;7.70;93.60;;;;;;5064743;28;19908;-73
2022/03/18 04:12:36;;;;;;;;;;;7.60;93.70;;;;;;5064441;28;19917;-73
2022/03/18 04:15:03;;;;;;;;;;;7.60;93.70;;;;;;5065624;28;20246;-73
2022/03/18 04:17:45;;;;;;;;;;;7.70;93.80;;;;;;5081148;28;19908;-74
2022/03/18 04:20:12;;;;;;;;;;;7.70;93.70;;;;;;5064313;28;19920;-73
2022/03/18 04:22:38;;;;;;;;;;;7.70;93.70;;;;;;5065234;28;19909;-74
2022/03/18 04:25:04;;;;;;;;;;;7.70;93.70;;;;;;5064330;28;19916;-73
2022/03/18 04:27:31;;;;;;;;;;;7.70;93.60;;;;;;5063543;28;19909;-73
2022/03/18 04:29:56;;;;;;;;;;;7.70;93.60;;;;;;5064313;28;19909;-73
2022/03/18 04:32:22;;;;;;;;;;;7.60;93.60;;;;;;5064081;28;19970;-73
2022/03/18 04:34:48;;;;;;;;;;;7.60;93.60;;;;;;5065222;28;19915;-73
2022/03/18 04:37:13;;;;;;;;;;;7.60;93.60;;;;;;5099042;22;19971;-72
2022/03/18 04:39:39;;;;;;;;;;;7.60;93.70;;;;;;5043320;28;19909;-72
2022/03/18 04:42:05;;;;;;;;;;;7.60;93.70;;;;;;5060384;28;19913;-73
2022/03/18 04:44:30;;;;;;;;;;;7.50;93.90;;;;;;5064982;28;20313;-73
2022/03/18 04:46:56;;;;;;;;;;;7.50;94.00;;;;;;5062178;28;20262;-73
2022/03/18 04:49:22;;;;;;;;;;;7.50;94.10;;;;;;5080535;28;19908;-73
2022/03/18 04:51:47;;;;;;;;;;;7.60;94.10;;;;;;5064528;28;19909;-73
2022/03/18 04:54:13;;;;;;;;;;;7.60;94.10;;;;;;5064921;28;19944;-75
2022/03/18 04:59:23;;;;;;;;;;;7.50;94.20;;;;;;5065387;28;20108;-74
2022/03/18 05:01:49;;;;;;;;;;;7.50;94.20;;;;;;5064408;28;19921;-73
2022/03/18 05:04:14;;;;;;;;;;;7.40;94.30;;;;;;5080217;28;20191;-74
2022/03/18 05:06:40;;;;;;;;;;;7.50;94.20;;;;;;5079049;28;20117;-74
2022/03/18 05:09:06;;;;;;;;;;;7.50;94.10;;;;;;5064414;28;19916;-74
2022/03/18 05:11:31;;;;;;;;;;;7.50;94.10;;;;;;5064390;28;19982;-74
2022/03/18 05:13:58;;;;;;;;;;;7.40;94.10;;;;;;5080017;28;19909;-73
2022/03/18 05:16:25;;;;;;;;;;;7.40;94.30;;;;;;5064409;28;19924;-73
2022/03/18 05:18:53;;;;;;;;;;;7.40;94.10;;;;;;5062921;28;19951;-71
2022/03/18 05:21:22;;;;;;;;;;;7.30;94.10;;;;;;5062438;28;20135;-72
2022/03/18 05:23:48;;;;;;;;;;;7.30;94.10;;;;;;5064366;28;19909;-73
2022/03/18 05:26:14;;;;;;;;;;;7.30;94.10;;;;;;5064342;28;19958;-73
2022/03/18 05:28:40;;;;;;;;;;;7.30;94.10;;;;;;5064206;28;20108;-73
2022/03/18 05:31:06;;;;;;;;;;;7.30;94.20;;;;;;5063511;28;19951;-74
2022/03/18 05:33:32;;;;;;;;;;;7.20;94.30;;;;;;5064100;28;20143;-74
2022/03/18 05:35:58;;;;;;;;;;;7.20;94.30;;;;;;5063724;28;20011;-74
2022/03/18 05:38:25;;;;;;;;;;;7.20;94.40;;;;;;5059297;28;19995;-74
2022/03/18 05:40:52;;;;;;;;;;;7.20;94.20;;;;;;5047902;28;19913;-74
2022/03/18 05:43:17;;;;;;;;;;;7.20;94.20;;;;;;5073037;28;20119;-74
2022/03/18 05:45:43;;;;;;;;;;;7.20;94.10;;;;;;5080944;28;19909;-74
2022/03/18 05:48:09;;;;;;;;;;;7.10;94.20;;;;;;5056462;28;19969;-74
2022/03/18 05:50:35;;;;;;;;;;;7.10;94.20;;;;;;5063426;28;19909;-74
2022/03/18 05:53:00;;;;;;;;;;;7.10;94.10;;;;;;5062539;28;19979;-74
2022/03/18 05:56:52;;;;;;;;;;;7.10;94.30;;;;;;5063472;28;19963;-74
2022/03/18 05:58:12;;;;;;;;;;;7.10;94.40;;;;;;5062437;28;20168;-74
2022/03/18 06:00:38;;;;;;;;;;;7.10;94.40;;;;;;5078748;28;19924;-73
2022/03/18 06:03:04;;;;;;;;;;;7.10;94.50;;;;;;5063154;28;19909;-74
2022/03/18 06:05:29;;;;;;;;;;;7.10;94.40;;;;;;5075561;28;19917;-73
2022/03/18 06:11:48;;;;;;;;;;;7.10;94.50;;;;;;5045539;28;19924;-74
2022/03/18 06:13:25;;;;;;;;;;;7.20;94.10;;;;;;5063300;28;19943;-74
2022/03/18 06:15:50;;;;;;;;;;;7.20;94.10;;;;;;5063209;28;20207;-74
2022/03/18 06:18:16;;;;;;;;;;;7.30;94.00;;;;;;5062026;28;19916;-74
2022/03/18 06:20:42;;;;;;;;;;;7.30;93.90;;;;;;5062016;28;19917;-74
2022/03/18 06:23:07;;;;;;;;;;;7.30;93.90;;;;;;5063234;28;20107;-74
2022/03/18 06:25:33;;;;;;;;;;;7.30;93.70;;;;;;5062157;28;19947;-74
2022/03/18 06:27:59;;;;;;;;;;;7.30;93.60;;;;;;5079077;28;20222;-74
2022/03/18 06:30:25;;;;;;;;;;;7.30;93.70;;;;;;5063674;28;19908;-74
2022/03/18 06:32:51;;;;;;;;;;;7.30;93.60;;;;;;5062996;28;19909;-74
2022/03/18 06:35:16;;;;;;;;;;;7.40;93.60;;;;;;5063058;28;20222;-74
2022/03/18 06:37:42;;;;;;;;;;;7.40;93.40;;;;;;5062853;28;19912;-74
2022/03/18 06:40:08;;;;;;;;;;;7.40;93.60;;;;;;5078472;28;20237;-74
2022/03/18 06:42:34;;;;;;;;;;;7.40;93.50;;;;;;5062881;28;19916;-74
2022/03/18 06:45:00;;;;;;;;;;;7.40;93.50;;;;;;5062791;28;19909;-74
2022/03/18 06:47:27;;;;;;;;;;;7.40;93.40;;;;;;5062776;28;19916;-74
2022/03/18 06:49:52;;;;;;;;;;;7.40;93.30;;;;;;5063077;28;19908;-73
2022/03/18 06:52:18;;;;;;;;;;;7.40;93.30;;;;;;5068869;28;20084;-74
2022/03/18 06:54:44;;;;;;;;;;;7.50;93.20;;;;;;5069625;28;19909;-74
2022/03/18 06:57:09;;;;;;;;;;;7.50;93.00;;;;;;5069322;28;19909;-74
2022/03/18 06:59:35;;;;;;;;;;;7.50;92.90;;;;;;5068421;28;19909;-74
2022/03/18 07:02:01;;;;;;;;;;;7.60;92.90;;;;;;5068968;28;20222;-74
2022/03/18 07:04:27;;;;;;;;;;;7.60;92.70;;;;;;5069518;28;19940;-74
2022/03/18 07:06:52;;;;;;;;;;;7.60;92.60;;;;;;5069041;28;19984;-74
2022/03/18 07:09:18;;;;;;;;;;;7.70;92.50;;;;;;5069338;28;19946;-74
2022/03/18 07:11:44;;;;;;;;;;;7.80;92.40;;;;;;5069106;28;19916;-74
2022/03/18 07:14:09;;;;;;;;;;;7.80;92.30;;;;;;5069615;28;19940;-74
2022/03/18 07:19:19;;;;;;;;;;;7.80;92.10;;;;;;5068383;28;19947;-74
2022/03/18 07:21:46;;;;;;;;;;;7.90;92.10;;;;;;5068611;28;20107;-74
2022/03/18 07:24:12;;;;;;;;;;;7.90;92.10;;;;;;5084824;28;20140;-74
2022/03/18 07:26:38;;;;;;;;;;;7.90;92.00;;;;;;5069268;28;19915;-74
2022/03/18 07:29:05;;;;;;;;;;;8.00;91.80;;;;;;5084897;28;20265;-75
2022/03/18 07:31:31;;;;;;;;;;;8.00;91.70;;;;;;5069035;28;20254;-74
2022/03/18 07:33:57;;;;;;;;;;;8.00;91.70;;;;;;5068149;28;19944;-75
2022/03/18 07:36:23;;;;;;;;;;;8.10;91.70;;;;;;5067912;28;19916;-74
2022/03/18 07:38:48;;;;;;;;;;;8.20;91.40;;;;;;5084735;28;19917;-74
2022/03/18 07:41:15;;;;;;;;;;;8.10;91.50;;;;;;5069799;28;19912;-75
2022/03/18 07:43:41;;;;;;;;;;;8.10;91.30;;;;;;5069801;28;19909;-74
2022/03/18 07:46:07;;;;;;;;;;;8.10;91.20;;;;;;5085045;28;19909;-74
2022/03/18 07:48:32;;;;;;;;;;;8.20;91.40;;;;;;5069190;28;19912;-74
2022/03/18 07:50:58;;;;;;;;;;;8.20;91.30;;;;;;5066471;28;19909;-74
2022/03/18 07:53:24;;;;;;;;;;;8.20;91.30;;;;;;5064956;28;19947;-75
2022/03/18 07:55:49;;;;;;;;;;;8.20;91.10;;;;;;5064333;28;19940;-74
2022/03/18 07:58:15;;;;;;;;;;;8.30;91.00;;;;;;5048738;28;19909;-74
2022/03/18 08:00:41;;;;;;;;;;;8.50;91.10;;;;;;5064099;28;20147;-74
2022/03/18 08:03:06;;;;;;;;;;;8.60;90.80;;;;;;5044074;28;19909;-74
2022/03/18 08:05:32;;;;;;;;;;;8.70;90.60;;;;;;5064470;28;20103;-75
2022/03/18 08:07:58;;;;;;;;;;;8.80;90.10;;;;;;5064863;28;19913;-74
2022/03/18 08:10:24;;;;;;;;;;;8.90;89.80;;;;;;5068630;28;19909;-74
2022/03/18 08:12:49;;;;;;;;;;;9.00;89.20;;;;;;5101496;28;19908;-74
2022/03/18 08:15:16;;;;;;;;;;;9.00;88.50;;;;;;5084897;28;20199;-75
2022/03/18 08:17:42;;;;;;;;;;;9.10;88.80;;;;;;5084681;28;20006;-74
2022/03/18 08:20:09;;;;;;;;;;;9.20;88.30;;;;;;5101564;28;19954;-74
2022/03/18 08:22:35;;;;;;;;;;;9.20;87.00;;;;;;5084271;28;19990;-74
2022/03/18 08:25:01;;;;;;;;;;;9.10;87.20;;;;;;5101576;28;19946;-74
2022/03/18 08:27:27;;;;;;;;;;;9.20;87.50;;;;;;5101442;28;19908;-74
2022/03/18 08:29:57;;;;;;;;;;;9.20;87.60;;;;;;5101551;28;19915;-74
2022/03/18 08:32:24;;;;;;;;;;;9.20;87.30;;;;;;5085098;28;19946;-74
2022/03/18 08:34:50;;;;;;;;;;;9.30;87.70;;;;;;5100953;28;19984;-74
2022/03/18 08:37:56;;;;;;;;;;;9.50;87.60;;;;;;5088801;28;19912;-74
2022/03/18 08:40:01;;;;;;;;;;;9.60;86.80;;;;;;5065143;28;19948;-74
2022/03/18 08:42:27;;;;;;;;;;;9.70;86.60;;;;;;5064951;28;19963;-74
2022/03/18 08:44:52;;;;;;;;;;;9.70;85.70;;;;;;5064177;28;19908;-74
2022/03/18 08:47:18;;;;;;;;;;;9.80;85.50;;;;;;5065140;28;19908;-74
2022/03/18 08:49:44;;;;;;;;;;;9.90;85.30;;;;;;5065024;28;19947;-74
2022/03/18 08:52:09;;;;;;;;;;;9.90;85.90;;;;;;5063396;28;20143;-74
2022/03/18 08:54:35;;;;;;;;;;;9.90;85.10;;;;;;5063661;28;19917;-74
2022/03/18 08:57:01;;;;;;;;;;;9.90;85.50;;;;;;5064977;28;19909;-74
2022/03/18 08:59:26;;;;;;;;;;;9.90;85.30;;;;;;5064985;28;19971;-74
2022/03/18 09:01:52;;;;;;;;;;;9.90;85.10;;;;;;5064580;28;19913;-74
2022/03/18 09:04:18;;;;;;;;;;;9.90;85.40;;;;;;5064976;28;19908;-74
2022/03/18 09:06:44;;;;;;;;;;;10.00;85.40;;;;;;5062616;28;19947;-74
2022/03/18 09:09:10;;;;;;;;;;;10.10;84.80;;;;;;5064851;28;19968;-74
2022/03/18 09:11:35;;;;;;;;;;;10.20;84.20;;;;;;5050538;28;19909;-75
2022/03/18 09:14:01;;;;;;;;;;;10.30;83.60;;;;;;5044223;28;20003;-74
2022/03/18 09:16:27;;;;;;;;;;;10.20;82.90;;;;;;5059902;28;19909;-73
2022/03/18 09:18:53;;;;;;;;;;;10.20;83.00;;;;;;5044328;28;19909;-75
2022/03/18 09:21:18;;;;;;;;;;;10.20;83.00;;;;;;5043721;28;19913;-73
2022/03/18 09:23:44;;;;;;;;;;;10.30;82.60;;;;;;5044363;28;19960;-73
2022/03/18 09:26:10;;;;;;;;;;;10.30;83.30;;;;;;5044280;28;19980;-72
2022/03/18 09:28:36;;;;;;;;;;;10.40;82.70;;;;;;5044030;28;19955;-73
2022/03/18 09:31:02;;;;;;;;;;;10.30;82.30;;;;;;5044094;28;19916;-73
2022/03/18 09:33:28;;;;;;;;;;;10.30;82.80;;;;;;5044020;28;20200;-73
2022/03/18 09:35:53;;;;;;;;;;;10.40;82.70;;;;;;5044188;28;19916;-74
2022/03/18 09:38:19;;;;;;;;;;;10.40;83.00;;;;;;5063278;28;19982;-74
2022/03/18 09:40:46;;;;;;;;;;;10.40;81.60;;;;;;5063703;28;19913;-73
2022/03/18 09:43:13;;;;;;;;;;;10.30;82.10;;;;;;5063954;28;19928;-74
2022/03/18 09:45:39;;;;;;;;;;;10.50;83.30;;;;;;5079364;28;19961;-73
2022/03/18 09:48:06;;;;;;;;;;;10.50;82.00;;;;;;5063635;28;19913;-74
2022/03/18 09:50:32;;;;;;;;;;;10.80;80.60;;;;;;5028738;28;19932;-74
2022/03/18 09:52:58;;;;;;;;;;;10.90;81.40;;;;;;5063620;28;19920;-74
2022/03/18 09:55:24;;;;;;;;;;;10.80;79.80;;;;;;5063788;28;19909;-74
2022/03/18 09:57:49;;;;;;;;;;;10.90;79.90;;;;;;5063839;28;19909;-74
2022/03/18 10:00:15;;;;;;;;;;;11.00;78.70;;;;;;5063688;28;19912;-74
2022/03/18 10:02:41;;;;;;;;;;;11.00;79.10;;;;;;5045981;28;19908;-74
2022/03/18 10:05:10;;;;;;;;;;;11.10;78.60;;;;;;5063143;28;19955;-74
2022/03/18 10:07:36;;;;;;;;;;;11.20;78.40;;;;;;5062267;28;20243;-74
2022/03/18 10:10:05;;;;;;;;;;;11.20;78.70;;;;;;5062523;28;19915;-74
2022/03/18 10:12:32;;;;;;;;;;;11.20;79.10;;;;;;5063135;28;19954;-74
2022/03/18 10:15:14;;;;;;;;;;;11.00;78.50;;;;;;5062285;28;19958;-74
2022/03/18 10:17:41;;;;;;;;;;;11.10;79.00;;;;;;5062276;28;20234;-74
2022/03/18 10:20:08;;;;;;;;;;;11.10;77.50;;;;;;5062087;28;19940;-74
2022/03/18 10:22:36;;;;;;;;;;;11.30;78.40;;;;;;5045359;28;19909;-74
2022/03/18 10:25:03;;;;;;;;;;;11.40;76.70;;;;;;5062610;28;19909;-74
2022/03/18 10:27:28;;;;;;;;;;;11.40;76.80;;;;;;5045430;28;19928;-74
2022/03/18 10:29:55;;;;;;;;;;;11.40;76.80;;;;;;5062033;28;19970;-74
2022/03/18 10:32:22;;;;;;;;;;;11.40;77.20;;;;;;5028576;28;20319;-74
2022/03/18 10:37:51;;;;;;;;;;;11.70;75.90;;;;;;5083590;22;19928;-65
2022/03/18 10:40:18;;;;;;;;;;;11.90;74.70;;;;;;5078835;28;19912;-66
2022/03/18 10:43:04;;;;;;;;;;;12.10;74.30;;;;;;5081543;28;19909;-65
2022/03/18 10:45:29;;;;;;;;;;;12.30;73.50;;;;;;5081690;28;19931;-66
2022/03/18 10:48:08;;;;;;;;;;;12.40;72.90;;;;;;5063821;28;20203;-66
2022/03/18 10:50:34;;;;;;;;;;;12.50;73.00;;;;;;5065965;28;19975;-65
2022/03/18 10:53:05;;;;;;;;;;;12.80;72.90;;;;;;5081714;28;19908;-66
2022/03/18 10:55:36;;;;;;;;;;;13.00;71.20;;;;;;5081735;28;19909;-65
2022/03/18 10:58:04;;;;;;;;;;;12.80;70.60;;;;;;5047032;28;20316;-65
2022/03/18 11:00:31;;;;;;;;;;;12.70;70.50;;;;;;5081404;28;19912;-65
2022/03/18 11:02:58;;;;;;;;;;;12.30;71.60;;;;;;5081406;28;19923;-65
2022/03/18 11:05:25;;;;;;;;;;;12.60;72.70;;;;;;5081348;28;19915;-66
2022/03/18 11:07:51;;;;;;;;;;;12.60;72.50;;;;;;5058553;28;19909;-66
2022/03/18 11:13:03;;;;;;;;;;;13.00;71.20;;;;;;5045938;28;19915;-66
2022/03/18 11:15:29;;;;;;;;;;;13.10;69.20;;;;;;5061552;28;19913;-66
2022/03/18 11:17:56;;;;;;;;;;;13.00;70.20;;;;;;5060169;28;20196;-67
2022/03/18 11:20:24;;;;;;;;;;;13.50;69.00;;;;;;5061114;28;20151;-66
2022/03/18 11:22:50;;;;;;;;;;;13.80;67.70;;;;;;5060848;28;19909;-67
2022/03/18 11:25:16;;;;;;;;;;;14.10;64.40;;;;;;5061249;28;19916;-66
2022/03/18 11:27:44;;;;;;;;;;;14.00;64.70;;;;;;5061368;28;19913;-67
2022/03/18 11:30:33;;;;;;;;;;;14.00;64.50;;;;;;5059967;28;19909;-67
2022/03/18 11:33:10;;;;;;;;;;;14.50;64.30;;;;;;5061310;28;19909;-67
2022/03/18 11:35:49;;;;;;;;;;;15.20;62.80;;;;;;5061547;28;19988;-67
2022/03/18 11:38:14;;;;;;;;;;;15.50;59.70;;;;;;5064170;28;19983;-67
2022/03/18 11:41:00;;;;;;;;;;;15.40;59.20;;;;;;5063664;28;19983;-67
2022/03/18 11:43:39;;;;;;;;;;;15.20;59.20;;;;;;5065372;28;19936;-66
2022/03/18 11:46:17;;;;;;;;;;;15.20;59.40;;;;;;5065203;28;19947;-66
2022/03/18 11:48:54;;;;;;;;;;;15.60;59.40;;;;;;5064863;28;19958;-66
2022/03/18 11:51:40;;;;;;;;;;;15.30;57.90;;;;;;5059214;28;19987;-65
2022/03/18 11:54:15;;;;;;;;;;;15.40;59.00;;;;;;5063117;28;19909;-65
2022/03/18 11:56:50;;;;;;;;;;;15.80;58.60;;;;;;5057074;28;19966;-65
2022/03/18 11:59:28;;;;;;;;;;;16.40;55.70;;;;;;5064867;28;20107;-65
2022/03/18 12:02:03;;;;;;;;;;;16.20;55.80;;;;;;5064281;28;19912;-65
2022/03/18 12:04:41;;;;;;;;;;;16.40;54.80;;;;;;5064697;28;19909;-65
2022/03/18 12:07:10;;;;;;;;;;;16.60;54.10;;;;;;5064338;28;19948;-65
2022/03/18 12:09:57;;;;;;;;;;;16.80;53.50;;;;;;5063732;28;20501;-65
2022/03/18 12:12:38;;;;;;;;;;;16.90;52.80;;;;;;5064012;28;19957;-65
2022/03/18 12:15:05;;;;;;;;;;;16.60;53.40;;;;;;5064219;28;19909;-65
2022/03/18 12:17:31;;;;;;;;;;;16.10;54.30;;;;;;5064395;28;20211;-65
2022/03/18 12:20:00;;;;;;;;;;;15.80;55.70;;;;;;5046184;28;19909;-65
2022/03/18 12:22:25;;;;;;;;;;;16.30;54.70;;;;;;5063774;28;20044;-65
2022/03/18 12:24:53;;;;;;;;;;;16.70;52.70;;;;;;5064006;28;20155;-65
2022/03/18 12:27:19;;;;;;;;;;;16.90;52.70;;;;;;5063764;28;19921;-65
2022/03/18 12:29:45;;;;;;;;;;;17.90;50.50;;;;;;5064062;28;20184;-65
2022/03/18 12:32:13;;;;;;;;;;;18.40;48.80;;;;;;5063615;28;20035;-65
2022/03/18 12:34:49;;;;;;;;;;;18.20;49.00;;;;;;5064097;28;19909;-65
2022/03/18 12:37:17;;;;;;;;;;;17.80;49.20;;;;;;5046603;28;19916;-65
2022/03/18 12:39:44;;;;;;;;;;;17.70;49.20;;;;;;5043901;28;19963;-65
2022/03/18 12:42:11;;;;;;;;;;;17.80;48.70;;;;;;5043507;28;20247;-66
2022/03/18 12:44:36;;;;;;;;;;;18.40;48.50;;;;;;5044042;28;19909;-66
2022/03/18 12:47:05;;;;;;;;;;;17.90;48.00;;;;;;5043637;28;20187;-65
2022/03/18 12:49:40;;;;;;;;;;;17.50;49.30;;;;;;5043003;28;19909;-65
2022/03/18 12:52:12;;;;;;;;;;;17.40;49.50;;;;;;5034646;28;19917;-66
2022/03/18 12:54:38;;;;;;;;;;;17.50;49.50;;;;;;5062717;28;20091;-65
2022/03/18 12:57:10;;;;;;;;;;;17.10;50.20;;;;;;5057821;28;19944;-65
2022/03/18 12:59:38;;;;;;;;;;;17.00;50.20;;;;;;5063201;28;20324;-66
2022/03/18 13:02:05;;;;;;;;;;;17.60;50.40;;;;;;5063109;28;20187;-65
2022/03/18 13:04:32;;;;;;;;;;;18.20;48.10;;;;;;5063167;28;19924;-65
2022/03/18 13:06:58;;;;;;;;;;;18.30;47.80;;;;;;5063223;28;19921;-66
2022/03/18 13:09:24;;;;;;;;;;;18.00;48.20;;;;;;5062279;28;19931;-66
2022/03/18 13:11:50;;;;;;;;;;;18.00;49.20;;;;;;5062896;28;19947;-66
2022/03/18 13:14:35;;;;;;;;;;;18.00;51.60;;;;;;5063428;28;20107;-66
2022/03/18 13:17:02;;;;;;;;;;;17.80;49.40;;;;;;5045880;28;19931;-66
2022/03/18 13:19:40;;;;;;;;;;;17.70;49.40;;;;;;5063175;28;20065;-67
2022/03/18 13:22:06;;;;;;;;;;;17.90;50.30;;;;;;5062399;28;19923;-68
2022/03/18 13:24:32;;;;;;;;;;;18.90;48.80;;;;;;5062167;28;19913;-66
2022/03/18 13:26:58;;;;;;;;;;;19.90;46.20;;;;;;5062948;28;19971;-67
2022/03/18 13:32:50;;;;;;;;;;;20.10;44.20;;;;;;5045167;28;19948;-66
2022/03/18 13:34:57;;;;;;;;;;;20.20;43.70;;;;;;5047517;28;19919;-66
2022/03/18 13:37:22;;;;;;;;;;;19.80;44.10;;;;;;5044745;28;19924;-66
2022/03/18 13:39:51;;;;;;;;;;;19.10;45.70;;;;;;5062468;28;19909;-66
2022/03/18 13:42:24;;;;;;;;;;;19.30;45.30;;;;;;5062223;28;19988;-66
2022/03/18 13:44:50;;;;;;;;;;;18.90;46.40;;;;;;5062728;28;19916;-66
2022/03/18 13:47:15;;;;;;;;;;;18.40;46.30;;;;;;5059280;28;19912;-66
2022/03/18 13:49:58;;;;;;;;;;;18.40;47.00;;;;;;5057533;28;19998;-66
2022/03/18 13:52:33;;;;;;;;;;;18.30;47.30;;;;;;5043769;28;19916;-68
2022/03/18 13:54:59;;;;;;;;;;;17.90;48.60;;;;;;5060636;28;19963;-70
2022/03/18 13:57:25;;;;;;;;;;;18.00;48.50;;;;;;5061408;28;20111;-69
2022/03/18 13:59:53;;;;;;;;;;;18.10;47.80;;;;;;5043534;28;19909;-69
2022/03/18 14:02:28;;;;;;;;;;;17.90;47.90;;;;;;5044344;28;19920;-69
2022/03/18 14:04:54;;;;;;;;;;;17.70;48.80;;;;;;5044551;28;19909;-71
2022/03/18 14:07:19;;;;;;;;;;;17.20;48.80;;;;;;5062151;28;19909;-69
2022/03/18 14:10:03;;;;;;;;;;;17.00;49.40;;;;;;5061497;28;19943;-69
2022/03/18 14:12:29;;;;;;;;;;;16.90;50.40;;;;;;5061673;28;20157;-70
2022/03/18 14:15:18;;;;;;;;;;;16.90;49.90;;;;;;5062607;28;19916;-69
2022/03/18 14:18:06;;;;;;;;;;;17.10;49.90;;;;;;5062140;28;19908;-69
2022/03/18 14:20:34;;;;;;;;;;;17.30;49.10;;;;;;5061827;28;19913;-70
2022/03/18 14:23:22;;;;;;;;;;;17.50;49.00;;;;;;5059672;28;20108;-70
2022/03/18 14:25:48;;;;;;;;;;;18.00;47.60;;;;;;5027251;28;19991;-67
2022/03/18 14:28:17;;;;;;;;;;;18.30;47.00;;;;;;5058843;28;19944;-70
2022/03/18 14:30:43;;;;;;;;;;;18.80;46.00;;;;;;5060562;28;20011;-70
2022/03/18 14:33:09;;;;;;;;;;;18.90;45.70;;;;;;5061527;28;19913;-71
2022/03/18 14:35:35;;;;;;;;;;;19.60;43.80;;;;;;5061284;28;19952;-70
2022/03/18 14:38:00;;;;;;;;;;;19.80;43.20;;;;;;5061230;28;19985;-68
2022/03/18 14:40:26;;;;;;;;;;;20.40;42.50;;;;;;5060256;28;20234;-68
2022/03/18 14:42:52;;;;;;;;;;;20.30;42.20;;;;;;5061700;28;19915;-70
2022/03/18 14:45:18;;;;;;;;;;;20.30;42.20;;;;;;5060581;28;19909;-70
2022/03/18 14:47:45;;;;;;;;;;;20.30;42.00;;;;;;5060983;28;19946;-66
2022/03/18 14:50:12;;;;;;;;;;;20.50;42.20;;;;;;5061644;28;19931;-69
2022/03/18 14:52:38;;;;;;;;;;;20.40;41.80;;;;;;5059918;28;19920;-71